• Join FlightAware (Why Join?)
  • Login
  • US Flag 
 
01:10PM EST


 

Airport Tracker/Info


-or-


 

Live Flight TrackerFlight Track Log ✈ MRA690 ✈ 17-Feb-2014 ✈ KCLM - KPWT

Flight Track Log - Related Links

Times and Time Zones

All times are in EST time to prevent confusion due to time zone crossing. See the MRA690 flight status page for this flight to view local times or setup timezone preferences in your user account.

Time Position Orientation Groundspeed Altitude Reporting Facility
EST Latitude Longitude Course Direction KTS MPH feet Rate Location/Type
08:20PM 48.1336 -123.5475 61° Northeast 114 131 1,600  Level Seattle Center
08:21PM 48.1536 -123.4933 61° Northeast 139 160 2,800 900 Climbing Seattle Center
08:22PM 48.1517 -123.4414 93° East 124 143 3,800 960 Climbing Seattle Center
08:23PM 48.1439 -123.3925 103° East 123 142 4,800 1,020 Climbing Seattle Center
08:24PM 48.1386 -123.3356 98° East 134 154 5,900 900 Climbing Seattle Center
08:25PM 48.1369 -123.3233 102° East 135 155 6,100 1,200 Climbing Seattle Center
08:25PM 48.1350 -123.2944 96° East 140 161 6,800 840 Climbing Seattle Center
08:26PM 48.1294 -123.2531 101° East 142 163 7,000 180 Climbing Seattle Center
08:26PM 48.1256 -123.2300 104° East 170 196 7,000  Level Seattle Center
08:27PM 48.1136 -123.1828 111° Southeast 192 221 7,000  Level Seattle Center
08:27PM 48.1056 -123.1417 106° East 198 228 7,000  Level Seattle Center
08:28PM 48.0978 -123.1081 109° East 187 215 7,000  Level Seattle Center
08:28PM 48.0897 -123.0708 108° East 190 219 7,000  Level Seattle Center
08:29PM 48.0833 -123.0331 104° East 187 215 7,000  Level Seattle Center
08:29PM 48.0778 -122.9978 103° East 182 209 7,000 60 Level Seattle Center
08:30PM 48.0725 -122.9603 102° East 180 207 7,100  Climbing Seattle Center
08:30PM 48.0658 -122.9150 102° East 176 203 7,000 -120 Descending Seattle Center
08:31PM 48.0597 -122.8897 110° East 177 204 7,000 120 Level Seattle Center
08:31PM 48.0569 -122.8714 103° East 175 201 7,100 60 Climbing Seattle Center
08:32PM 48.0325 -122.8350 135° Southeast 159 183 7,100 -120 Level Seattle Center
08:32PM 48.0350 -122.8361 343° North 161 185 7,000  Descending Seattle Center
08:33PM 47.9947 -122.7994 149° Southeast 156 180 7,100  Climbing Seattle Center
08:33PM 47.9903 -122.7958 151° Southeast 158 182 7,000 -600 Descending Seattle Center
08:34PM 47.9489 -122.7603 150° Southeast 171 197 6,500 -420 Descending Seattle Center
08:35PM 47.9064 -122.7289 154° Southeast 179 206 6,200 -420 Descending Seattle Center
08:35PM 47.9044 -122.7272 150° Southeast 177 204 6,100 -120 Descending Seattle Center
08:36PM 47.8683 -122.7003 153° Southeast 173 199 6,100 -240 Level Seattle Center
08:36PM 47.8619 -122.6958 155° Southeast 170 196 5,900 -840 Descending Seattle Center
08:37PM 47.8256 -122.6708 155° Southeast 171 197 5,300 -840 Descending Seattle Center
08:37PM 47.8189 -122.6644 147° Southeast 172 198 5,100 -1,020 Descending Seattle Center
08:38PM 47.7731 -122.6542 171° South 164 189 4,100 -840 Descending Seattle Center
08:39PM 47.7350 -122.6547 181° South 156 180 3,600 -840 Descending Seattle Center
08:39PM 47.7289 -122.6506 155° Southeast 158 182 3,300 -1,020 Descending Seattle Center
08:40PM 47.6900 -122.6528 182° South 162 186 2,600 -900 Descending Seattle Center
08:40PM 47.6803 -122.6514 175° South 162 186 2,400 -120 Descending Seattle Center
08:41PM 47.6406 -122.6503 179° South 153 176 2,500  Climbing Seattle Center
08:41PM 47.6378 -122.6472 143° Southeast 155 178 2,400 -120 Descending Seattle Center
08:42PM 47.6008 -122.6478 181° South 149 171 2,400  Level Seattle Center